Time;durP1;ratioP1;P1;durP2;ratioP2;P2;SDS_P1;SDS_P2;PMS_P1;PMS_P2;Temp;Humidity;BMP_temperature;BMP_pressure;BME280_temperature;BME280_humidity;BME280_pressure;Samples;Min_cycle;Max_cycle;Signal;HPM_P1;HPM_P2
2023/07/28 00:00:18;;;;;;;2.58;1.50;;;;;;;24.37;39.54;99853.91;5092185;28;20047;-67
2023/07/28 00:02:48;;;;;;;2.42;1.52;;;;;;;24.35;39.32;99853.28;5092320;28;20082;-67
2023/07/28 00:05:18;;;;;;;3.10;1.60;;;;;;;24.37;39.29;99861.25;5092140;28;20048;-67
2023/07/28 00:07:46;;;;;;;3.08;1.58;;;;;;;24.35;39.57;99856.00;5092432;28;20084;-66
2023/07/28 00:10:14;;;;;;;3.10;1.67;;;;;;;24.34;39.67;99848.84;5091996;28;20079;-67
2023/07/28 00:12:43;;;;;;;3.20;1.70;;;;;;;24.34;39.51;99851.59;5092300;28;20043;-66
2023/07/28 00:15:11;;;;;;;3.63;1.70;;;;;;;24.34;39.65;99848.84;5092234;28;20040;-66
2023/07/28 00:17:39;;;;;;;3.63;1.80;;;;;;;24.34;39.71;99846.13;5092017;28;20058;-66
2023/07/28 00:20:10;;;;;;;2.75;1.60;;;;;;;24.33;39.74;99838.16;5091968;28;20097;-68
2023/07/28 00:22:38;;;;;;;2.80;1.55;;;;;;;24.33;39.74;99841.72;5091940;28;20052;-67
2023/07/28 00:25:07;;;;;;;3.35;1.60;;;;;;;24.33;39.90;99846.34;5091905;28;20126;-66
2023/07/28 00:27:36;;;;;;;2.83;1.67;;;;;;;24.31;39.74;99841.03;5074128;28;20588;-65
2023/07/28 00:30:05;;;;;;;2.15;1.40;;;;;;;24.30;39.92;99838.47;5091977;28;20079;-66
2023/07/28 00:32:33;;;;;;;3.30;1.60;;;;;;;24.31;39.85;99838.31;5073933;28;20135;-66
2023/07/28 00:35:01;;;;;;;2.72;1.70;;;;;;;24.31;39.77;99843.78;5092292;28;20427;-66
2023/07/28 00:37:31;;;;;;;2.85;1.70;;;;;;;24.30;39.87;99839.31;5091465;28;20386;-66
2023/07/28 00:39:59;;;;;;;2.45;1.67;;;;;;;24.30;39.93;99842.06;5092016;28;20127;-66
2023/07/28 00:42:27;;;;;;;2.90;1.60;;;;;;;24.29;39.87;99840.38;5091614;28;20087;-67
2023/07/28 00:44:56;;;;;;;3.10;1.70;;;;;;;24.29;39.93;99840.38;5091658;28;20059;-66
2023/07/28 00:47:25;;;;;;;2.47;1.52;;;;;;;24.27;40.10;99837.00;5091659;28;20055;-66
2023/07/28 00:49:53;;;;;;;3.17;1.90;;;;;;;24.27;40.02;99837.84;5091734;28;20093;-67
2023/07/28 00:52:22;;;;;;;2.85;1.75;;;;;;;24.27;40.04;99835.09;5091440;28;20047;-65
2023/07/28 00:54:51;;;;;;;2.15;1.50;;;;;;;24.26;40.02;99827.13;5091610;28;20044;-67
2023/07/28 00:57:20;;;;;;;2.75;1.75;;;;;;;24.25;40.14;99829.00;5091428;28;20092;-67
2023/07/28 00:59:48;;;;;;;2.92;1.77;;;;;;;24.25;40.02;99833.63;5091516;28;20044;-67
2023/07/28 01:02:19;;;;;;;3.65;1.65;;;;;;;24.25;40.12;99833.63;5091335;28;20507;-67
2023/07/28 01:04:49;;;;;;;3.38;1.85;;;;;;;24.23;40.18;99820.19;5091537;28;20444;-65
2023/07/28 01:07:23;;;;;;;2.97;1.60;;;;;;;24.25;40.16;99828.16;5091496;28;20071;-66
2023/07/28 01:09:58;;;;;;;3.92;1.83;;;;;;;24.23;40.18;99825.63;5091311;28;20044;-67
2023/07/28 01:12:27;;;;;;;2.97;1.90;;;;;;;24.23;40.13;99824.78;5091158;28;20051;-65
2023/07/28 01:14:55;;;;;;;2.67;1.70;;;;;;;24.23;40.19;99824.78;5091177;28;20044;-67
2023/07/28 01:17:24;;;;;;;3.50;1.85;;;;;;;24.22;40.26;99823.06;5091508;28;20048;-66
2023/07/28 01:19:53;;;;;;;3.38;1.67;;;;;;;24.18;40.21;99819.91;5091185;28;20485;-66
2023/07/28 01:22:49;;;;;;;3.15;1.88;;;;;;;24.21;40.20;99822.22;5091195;28;20048;-66
2023/07/28 01:25:33;;;;;;;2.78;1.70;;;;;;;24.20;40.25;99825.16;5091213;28;20055;-66
2023/07/28 01:28:04;;;;;;;3.65;1.80;;;;;;;24.20;40.30;99820.56;5091360;28;20047;-66
2023/07/28 01:30:33;;;;;;;4.15;1.90;;;;;;;24.20;40.24;99820.56;5091242;28;20052;-66
2023/07/28 01:33:01;;;;;;;3.05;1.80;;;;;;;24.20;40.46;99814.25;5091196;28;20461;-65
2023/07/28 01:35:29;;;;;;;3.95;1.77;;;;;;;24.19;40.28;99812.56;5091348;28;20087;-66
2023/07/28 01:37:57;;;;;;;2.88;1.40;;;;;;;24.18;40.36;99819.06;5090993;28;20462;-66
2023/07/28 01:40:26;;;;;;;3.50;1.80;;;;;;;24.18;40.25;99821.78;5091154;28;20047;-66
2023/07/28 01:42:54;;;;;;;4.00;1.98;;;;;;;24.18;40.30;99821.78;5091241;28;20366;-66
2023/07/28 01:45:23;;;;;;;4.15;1.90;;;;;;;24.16;40.57;99823.84;5091069;28;20189;-66
2023/07/28 01:47:52;;;;;;;1.85;1.38;;;;;;;24.15;40.26;99820.28;5091031;28;20044;-66
2023/07/28 01:50:20;;;;;;;3.42;1.80;;;;;;;24.16;40.58;99821.13;5076338;28;20048;-66
2023/07/28 01:52:48;;;;;;;3.22;1.70;;;;;;;24.14;40.67;99817.75;5095118;28;20135;-66
2023/07/28 01:55:16;;;;;;;2.60;1.58;;;;;;;24.13;40.57;99813.34;5094988;28;20048;-66
2023/07/28 01:57:52;;;;;;;3.10;1.95;;;;;;;24.14;40.49;99817.75;5094564;28;20054;-66
2023/07/28 02:00:21;;;;;;;4.07;1.80;;;;;;;24.12;40.55;99815.19;5094782;28;20040;-66
2023/07/28 02:02:51;;;;;;;2.83;1.48;;;;;;;24.12;40.56;99811.63;5094501;28;20051;-66
2023/07/28 02:05:20;;;;;;;3.05;1.75;;;;;;;24.11;40.47;99812.66;5094741;28;20131;-66
2023/07/28 02:07:48;;;;;;;3.63;1.70;;;;;;;24.09;40.34;99809.31;5094364;28;20090;-66
2023/07/28 02:10:16;;;;;;;4.05;1.80;;;;;;;24.09;40.55;99810.16;5094578;28;20048;-66
2023/07/28 02:12:44;;;;;;;3.05;1.60;;;;;;;24.09;40.59;99812.88;5094410;28;20052;-66
2023/07/28 02:15:15;;;;;;;2.92;1.67;;;;;;;24.08;40.71;99815.78;5094355;28;20055;-65
2023/07/28 02:17:44;;;;;;;2.70;1.75;;;;;;;24.08;40.68;99822.06;5094244;28;20044;-65
2023/07/28 02:20:15;;;;;;;3.00;1.85;;;;;;;24.07;40.67;99808.66;5094445;28;20075;-67
2023/07/28 02:22:44;;;;;;;3.20;1.90;;;;;;;24.07;40.69;99808.66;5094147;28;20077;-65
2023/07/28 02:25:12;;;;;;;2.85;1.77;;;;;;;23.95;40.88;99790.06;5094379;28;20438;-66
2023/07/28 02:27:40;;;;;;;2.88;1.65;;;;;;;24.05;40.70;99821.63;5094271;28;20451;-66
2023/07/28 02:30:10;;;;;;;3.05;1.65;;;;;;;24.05;40.80;99810.72;5093959;28;20142;-67
2023/07/28 02:32:38;;;;;;;2.65;1.65;;;;;;;24.04;40.84;99814.50;5094203;28;20147;-66
2023/07/28 02:35:07;;;;;;;3.03;1.73;;;;;;;24.04;40.76;99804.44;5094167;28;20044;-66
2023/07/28 02:37:37;;;;;;;3.78;1.80;;;;;;;24.02;40.76;99806.47;5093949;28;20079;-66
2023/07/28 02:40:06;;;;;;;4.38;1.80;;;;;;;24.02;40.76;99805.63;5093962;28;20052;-65
2023/07/28 02:42:35;;;;;;;3.50;1.90;;;;;;;24.02;40.82;99801.03;5093733;28;20044;-67
2023/07/28 02:45:04;;;;;;;3.10;1.90;;;;;;;24.02;40.85;99794.75;5093651;28;20052;-67
2023/07/28 02:47:32;;;;;;;3.53;1.80;;;;;;;24.01;40.93;99798.50;5094265;28;20044;-66
2023/07/28 02:50:00;;;;;;;2.85;1.70;;;;;;;23.99;41.00;99796.81;5093774;28;20416;-66
2023/07/28 02:52:29;;;;;;;2.65;1.77;;;;;;;23.98;41.05;99800.56;5093790;28;20078;-67
2023/07/28 02:54:58;;;;;;;2.85;1.52;;;;;;;23.98;41.06;99805.19;5093480;28;20452;-66
2023/07/28 02:57:27;;;;;;;2.65;1.60;;;;;;;23.97;41.17;99798.06;5093720;28;20059;-66
2023/07/28 02:59:55;;;;;;;2.78;1.70;;;;;;;23.97;41.04;99798.06;5093376;28;20134;-66
2023/07/28 03:02:23;;;;;;;3.45;1.80;;;;;;;23.97;41.05;99801.63;5093819;28;20048;-66
2023/07/28 03:04:51;;;;;;;2.90;1.60;;;;;;;23.96;41.21;99808.09;5093466;28;20481;-66
2023/07/28 03:07:20;;;;;;;2.60;1.60;;;;;;;23.96;41.09;99802.66;5093285;28;20079;-66
2023/07/28 03:09:48;;;;;;;2.75;1.73;;;;;;;23.96;41.18;99802.66;5093133;28;20090;-66
2023/07/28 03:12:18;;;;;;;3.53;1.80;;;;;;;23.96;41.20;99796.38;5093436;28;20047;-67
2023/07/28 03:14:46;;;;;;;3.13;1.92;;;;;;;23.94;41.27;99804.72;5093326;28;20048;-66
2023/07/28 03:17:14;;;;;;;3.88;1.80;;;;;;;23.93;41.34;99794.00;5093333;28;20397;-66
2023/07/28 03:19:43;;;;;;;3.08;1.70;;;;;;;23.92;41.26;99790.44;5093101;28;20083;-66
2023/07/28 03:22:11;;;;;;;3.15;1.90;;;;;;;23.92;41.31;99790.44;5093027;28;20040;-66
2023/07/28 03:24:42;;;;;;;3.53;1.80;;;;;;;23.91;41.29;99799.63;5093092;28;20127;-66
2023/07/28 03:27:11;;;;;;;3.20;1.90;;;;;;;23.91;41.52;99799.63;5093098;28;20044;-66
2023/07/28 03:29:40;;;;;;;3.00;1.70;;;;;;;23.90;41.18;99797.94;5092955;28;20044;-66
2023/07/28 03:32:09;;;;;;;2.95;1.73;;;;;;;23.90;41.35;99789.78;5092890;28;20044;-66
2023/07/28 03:34:37;;;;;;;3.28;1.90;;;;;;;23.88;41.36;99771.94;5092758;28;20044;-66
2023/07/28 03:37:05;;;;;;;3.40;1.90;;;;;;;23.89;41.36;99773.63;5092678;28;20131;-66
2023/07/28 03:39:34;;;;;;;4.25;2.10;;;;;;;23.87;41.42;99771.09;5092898;28;20051;-66
2023/07/28 03:42:02;;;;;;;3.17;1.70;;;;;;;23.87;41.40;99779.28;5092729;28;20091;-66
2023/07/28 03:44:33;;;;;;;3.42;2.00;;;;;;;23.88;41.50;99797.31;5092650;28;20051;-66
2023/07/28 03:47:03;;;;;;;2.65;1.60;;;;;;;23.87;41.63;99798.34;5092600;28;20052;-66
2023/07/28 03:49:32;;;;;;;3.17;2.05;;;;;;;23.86;41.54;99801.25;5092428;28;20037;-66
2023/07/28 03:52:00;;;;;;;3.53;2.08;;;;;;;23.86;41.57;99804.81;5092629;28;20066;-66
2023/07/28 03:54:28;;;;;;;3.47;1.77;;;;;;;23.85;41.59;99797.69;5092399;28;20481;-66
2023/07/28 03:56:57;;;;;;;3.35;1.88;;;;;;;23.84;41.56;99793.28;5092418;28;20044;-66
2023/07/28 03:59:25;;;;;;;4.85;2.00;;;;;;;23.84;41.58;99793.28;5092235;28;20056;-66
2023/07/28 04:01:53;;;;;;;3.47;2.10;;;;;;;23.83;41.79;99799.72;5092350;28;20525;-66
2023/07/28 04:04:23;;;;;;;3.90;2.17;;;;;;;23.83;41.70;99802.47;5092233;28;20047;-66
2023/07/28 04:06:53;;;;;;;3.25;1.90;;;;;;;23.83;41.69;99798.88;5092453;28;20083;-66
2023/07/28 04:09:21;;;;;;;3.95;1.90;;;;;;;23.83;41.69;99798.88;5092423;28;20051;-66
2023/07/28 04:11:49;;;;;;;3.47;2.00;;;;;;;23.82;41.70;99808.94;5091470;28;20497;-66
2023/07/28 04:14:18;;;;;;;3.85;2.00;;;;;;;23.82;41.66;99817.13;5092064;28;20142;-67
2023/07/28 04:16:46;;;;;;;3.17;2.10;;;;;;;23.81;41.73;99815.41;5091956;28;20058;-67
2023/07/28 04:19:14;;;;;;;3.17;1.80;;;;;;;23.80;41.77;99813.75;5091932;28;20477;-66
2023/07/28 04:21:45;;;;;;;4.03;1.90;;;;;;;23.79;41.89;99817.50;5092074;28;20127;-67
2023/07/28 04:24:13;;;;;;;3.38;2.00;;;;;;;23.79;41.83;99817.50;5091833;28;20538;-66
2023/07/28 04:26:42;;;;;;;2.95;1.73;;;;;;;23.78;41.70;99815.81;5091892;28;20047;-67
2023/07/28 04:29:10;;;;;;;3.17;1.90;;;;;;;23.78;41.93;99815.81;5091670;28;20052;-65
2023/07/28 04:31:39;;;;;;;3.88;1.95;;;;;;;23.78;41.95;99810.38;5091817;28;20044;-64
2023/07/28 04:34:07;;;;;;;3.67;2.10;;;;;;;23.77;41.89;99803.22;5091874;28;20048;-67
2023/07/28 04:36:35;;;;;;;3.95;1.95;;;;;;;23.76;41.91;99807.00;5091833;28;20105;-67
2023/07/28 04:39:05;;;;;;;3.28;2.08;;;;;;;23.77;42.17;99803.22;5091471;28;20544;-67
2023/07/28 04:41:33;;;;;;;4.47;2.05;;;;;;;23.76;41.93;99809.72;5091591;28;20445;-67
2023/07/28 04:44:02;;;;;;;3.28;2.00;;;;;;;23.75;41.93;99807.19;5091624;28;20188;-65
2023/07/28 04:46:31;;;;;;;2.97;1.80;;;;;;;23.74;42.02;99800.91;5091560;28;20059;-67
2023/07/28 04:48:59;;;;;;;3.42;2.00;;;;;;;23.74;42.05;99789.13;5091738;28;20044;-66
2023/07/28 04:51:28;;;;;;;4.53;1.95;;;;;;;23.74;42.01;99790.00;5091578;28;20044;-66
2023/07/28 04:53:56;;;;;;;3.15;1.80;;;;;;;23.74;42.04;99784.56;5091385;28;20055;-67
2023/07/28 04:56:26;;;;;;;5.07;2.05;;;;;;;23.70;42.09;99775.91;5091353;28;20046;-67
2023/07/28 04:58:54;;;;;;;3.97;1.85;;;;;;;23.72;41.96;99772.97;5091295;28;20083;-67
2023/07/28 05:01:22;;;;;;;3.03;1.70;;;;;;;23.73;42.04;99779.28;5091252;28;20497;-67
2023/07/28 05:03:50;;;;;;;3.42;1.95;;;;;;;23.70;42.08;99780.50;5091488;28;20105;-67
2023/07/28 05:06:19;;;;;;;3.53;1.80;;;;;;;23.70;42.15;99781.34;5091350;28;20089;-67
2023/07/28 05:08:47;;;;;;;4.00;1.90;;;;;;;23.72;42.22;99788.47;5091255;28;20040;-67
2023/07/28 05:11:15;;;;;;;4.20;1.83;;;;;;;23.69;42.23;99795.16;5091012;28;20094;-66
2023/07/28 05:13:45;;;;;;;3.83;1.90;;;;;;;23.68;42.33;99798.91;5091467;28;20089;-66
2023/07/28 05:16:13;;;;;;;5.15;1.98;;;;;;;23.69;42.28;99789.72;5091599;28;20053;-66
2023/07/28 05:18:42;;;;;;;4.15;2.03;;;;;;;23.68;42.23;99788.03;5091256;28;20560;-66
2023/07/28 05:21:11;;;;;;;4.95;1.90;;;;;;;23.69;42.36;99786.97;5091074;28;20409;-67
2023/07/28 05:23:39;;;;;;;3.88;1.98;;;;;;;23.68;42.39;99777.97;5092142;28;20140;-67
2023/07/28 05:26:07;;;;;;;4.35;1.90;;;;;;;23.68;42.41;99777.97;5095430;28;20135;-66
2023/07/28 05:28:36;;;;;;;3.67;2.17;;;;;;;23.68;42.40;99777.13;5095588;28;20056;-67
2023/07/28 05:31:06;;;;;;;2.67;1.70;;;;;;;23.68;42.62;99777.13;5095162;28;20047;-67
2023/07/28 05:33:35;;;;;;;4.65;2.13;;;;;;;23.67;42.40;99779.00;5094843;28;20508;-65
2023/07/28 05:36:04;;;;;;;3.20;1.90;;;;;;;23.67;42.50;99791.78;5094931;28;20044;-66
2023/07/28 05:38:34;;;;;;;3.05;1.80;;;;;;;23.67;42.60;99797.22;5095337;28;20045;-66
2023/07/28 05:41:05;;;;;;;3.45;1.90;;;;;;;23.68;42.53;99798.91;5095046;28;20105;-65
2023/07/28 05:43:36;;;;;;;3.72;1.88;;;;;;;23.68;42.54;99793.47;5094966;28;20490;-66
2023/07/28 05:46:05;;;;;;;3.08;1.88;;;;;;;23.68;42.51;99788.03;5095078;28;20044;-66
2023/07/28 05:48:34;;;;;;;4.22;2.17;;;;;;;23.67;42.42;99803.50;5094170;28;20052;-67
2023/07/28 05:51:02;;;;;;;4.50;1.90;;;;;;;23.68;42.66;99810.66;5094473;28;20116;-67
2023/07/28 05:53:30;;;;;;;3.92;1.95;;;;;;;23.69;42.66;99816.94;5094788;28;20044;-72
2023/07/28 05:55:58;;;;;;;3.03;1.70;;;;;;;23.67;42.73;99819.84;5094797;28;20044;-66
2023/07/28 05:58:27;;;;;;;4.60;1.98;;;;;;;23.68;42.62;99823.41;5094704;28;20584;-65
2023/07/28 06:00:55;;;;;;;3.78;1.90;;;;;;;23.68;42.77;99815.25;5094506;28;20048;-65
2023/07/28 06:03:26;;;;;;;2.90;1.83;;;;;;;23.69;42.84;99822.38;5100952;28;20056;-63
2023/07/28 06:05:54;;;;;;;5.47;2.22;;;;;;;23.59;43.93;99819.94;5099396;28;20101;-64
2023/07/28 06:08:22;;;;;;;4.22;2.20;;;;;;;23.59;44.02;99825.38;5106362;28;20059;-66
2023/07/28 06:10:50;;;;;;;6.68;2.10;;;;;;;23.58;43.93;99820.09;5094034;28;20048;-64
2023/07/28 06:13:18;;;;;;;7.03;2.67;;;;;;;23.61;44.28;99827.91;5093769;28;20461;-64
2023/07/28 06:15:47;;;;;;;7.25;2.10;;;;;;;23.62;44.27;99821.44;5093498;28;20602;-65
2023/07/28 06:18:16;;;;;;;7.00;2.50;;;;;;;23.65;44.56;99826.53;5093841;28;20044;-64
2023/07/28 06:20:46;;;;;;;5.13;2.50;;;;;;;23.66;44.86;99825.47;5093784;28;20430;-64
2023/07/28 06:23:14;;;;;;;5.05;2.05;;;;;;;23.67;44.86;99827.19;5093535;28;20136;-65
2023/07/28 06:25:44;;;;;;;4.05;2.45;;;;;;;23.69;44.94;99827.81;5093700;28;20051;-63
2023/07/28 06:28:12;;;;;;;6.50;2.58;;;;;;;23.69;44.64;99828.66;5093724;28;20051;-64
2023/07/28 06:30:41;;;;;;;5.00;2.50;;;;;;;23.72;44.33;99827.44;5093388;28;20052;-63
2023/07/28 06:33:10;;;;;;;6.18;2.55;;;;;;;23.73;44.79;99822.84;5092090;28;20040;-62
2023/07/28 06:35:38;;;;;;;5.40;2.75;;;;;;;23.69;45.10;99822.38;5089653;28;20484;-66
2023/07/28 06:38:08;;;;;;;6.80;2.88;;;;;;;23.66;45.48;99833.66;5093442;28;20377;-65
2023/07/28 06:40:37;;;;;;;8.52;3.10;;;;;;;23.61;45.47;99833.34;5093365;28;20088;-65
2023/07/28 06:43:07;;;;;;;5.70;2.80;;;;;;;23.56;45.55;99831.19;5091899;28;20090;-61
2023/07/28 06:45:35;;;;;;;6.15;2.70;;;;;;;23.53;45.46;99828.81;5093112;28;20113;-60
2023/07/28 06:48:04;;;;;;;6.35;2.30;;;;;;;23.50;45.38;99833.78;5093286;28;20374;-64
2023/07/28 06:50:33;;;;;;;4.25;2.30;;;;;;;23.46;45.16;99827.88;5093090;28;20044;-66
2023/07/28 06:53:01;;;;;;;16.73;3.05;;;;;;;23.41;45.28;99822.97;5092979;28;20044;-67
2023/07/28 06:55:31;;;;;;;8.88;2.40;;;;;;;23.41;45.42;99819.41;5092352;28;20114;-61
2023/07/28 06:57:59;;;;;;;6.25;2.42;;;;;;;23.41;45.38;99812.09;5093216;28;20051;-62
2023/07/28 07:00:27;;;;;;;6.55;2.20;;;;;;;23.41;45.23;99803.94;5091371;28;20101;-63
2023/07/28 07:02:55;;;;;;;6.18;2.20;;;;;;;23.41;45.30;99803.94;5091442;28;20044;-63
2023/07/28 07:05:24;;;;;;;7.55;2.38;;;;;;;23.41;45.20;99778.59;5092260;28;20044;-62
2023/07/28 07:07:54;;;;;;;5.95;2.60;;;;;;;23.40;45.28;99777.75;5092646;28;20044;-63
2023/07/28 07:10:22;;;;;;;8.52;2.20;;;;;;;23.40;45.38;99787.78;5093995;28;20079;-64
2023/07/28 07:12:52;;;;;;;4.38;2.03;;;;;;;23.39;45.01;99789.66;5092961;28;20044;-64
2023/07/28 07:15:20;;;;;;;4.85;2.20;;;;;;;23.37;45.30;99786.28;5092305;28;20044;-64
2023/07/28 07:17:48;;;;;;;6.15;2.28;;;;;;;23.35;44.98;99791.03;5092657;28;20044;-65
2023/07/28 07:20:16;;;;;;;5.97;2.00;;;;;;;23.33;45.02;99790.41;5092865;28;20051;-65
2023/07/28 07:22:44;;;;;;;4.90;2.03;;;;;;;23.31;45.00;99791.63;5092388;28;20064;-62
2023/07/28 07:25:13;;;;;;;6.57;2.20;;;;;;;23.29;45.04;99777.34;5092079;28;20500;-64
2023/07/28 07:27:41;;;;;;;4.35;2.00;;;;;;;23.28;45.01;99792.00;5092672;28;20071;-64
2023/07/28 07:30:12;;;;;;;3.75;2.10;;;;;;;23.29;45.06;99796.41;5092615;28;20151;-64
2023/07/28 07:32:40;;;;;;;6.10;2.20;;;;;;;23.29;45.08;99786.38;5092442;28;20082;-64
2023/07/28 07:35:10;;;;;;;4.03;2.10;;;;;;;23.32;45.09;99777.81;5092081;28;20499;-67
2023/07/28 07:37:38;;;;;;;3.97;1.88;;;;;;;23.33;44.83;99779.50;5091990;28;20083;-68
2023/07/28 07:40:08;;;;;;;11.02;2.30;;;;;;;23.37;44.80;99780.84;5092361;28;20059;-65
2023/07/28 07:42:44;;;;;;;10.68;2.45;;;;;;;23.39;44.91;99773.34;5091919;28;20523;-66
2023/07/28 07:45:14;;;;;;;9.88;2.10;;;;;;;23.41;44.92;99775.88;5091868;28;20132;-65
2023/07/28 07:47:43;;;;;;;6.13;2.05;;;;;;;23.45;44.79;99773.59;5091230;28;20066;-64
2023/07/28 07:50:13;;;;;;;5.25;2.00;;;;;;;23.48;44.89;99775.97;5092170;28;20135;-64
2023/07/28 07:52:41;;;;;;;3.60;1.65;;;;;;;23.49;44.79;99772.22;5091888;28;20119;-65
2023/07/28 07:55:12;;;;;;;6.07;2.00;;;;;;;23.50;45.44;99773.91;5091735;28;20155;-63
2023/07/28 07:57:40;;;;;;;6.03;1.95;;;;;;;23.55;46.07;99768.75;5092274;28;20132;-64
2023/07/28 08:00:10;;;;;;;4.57;1.80;;;;;;;23.56;45.54;99765.00;5091751;28;20040;-64
2023/07/28 08:02:40;;;;;;;10.15;2.00;;;;;;;23.58;45.65;99771.09;5091549;28;20500;-64
2023/07/28 08:05:13;;;;;;;4.85;2.10;;;;;;;23.60;45.99;99777.22;5091532;28;20073;-63
2023/07/28 08:07:41;;;;;;;5.90;2.13;;;;;;;23.63;46.34;99768.66;5091815;28;20044;-63
2023/07/28 08:10:10;;;;;;;4.15;1.90;;;;;;;23.64;46.22;99776.69;5091613;28;20090;-63
2023/07/28 08:12:39;;;;;;;8.10;2.00;;;;;;;23.65;46.18;99774.78;5091390;28;20047;-66
2023/07/28 08:15:08;;;;;;;6.05;2.35;;;;;;;23.67;46.41;99778.16;5091508;28;20039;-63
2023/07/28 08:17:36;;;;;;;18.52;3.38;;;;;;;23.69;46.49;99778.81;5091760;28;20093;-62
2023/07/28 08:20:08;;;;;;;32.78;5.47;;;;;;;23.73;47.81;99780.13;5091421;28;20044;-63
2023/07/28 08:22:36;;;;;;;34.38;5.20;;;;;;;23.76;47.47;99778.91;5091554;28;20052;-64
2023/07/28 08:25:05;;;;;;;24.55;4.72;;;;;;;23.77;47.04;99775.16;5091138;28;20443;-63
2023/07/28 08:27:33;;;;;;;18.63;4.18;;;;;;;23.78;46.91;99779.56;5091263;28;20075;-62
2023/07/28 08:30:01;;;;;;;17.98;3.78;;;;;;;23.80;46.70;99780.22;5091507;28;20072;-63
2023/07/28 08:32:30;;;;;;;23.75;3.67;;;;;;;23.79;46.78;99775.81;5091312;28;20349;-64
2023/07/28 08:34:58;;;;;;;9.82;2.97;;;;;;;23.80;46.48;99770.16;5091083;28;20097;-63
2023/07/28 08:37:29;;;;;;;15.20;3.30;;;;;;;23.83;46.63;99767.06;5091186;28;20518;-64
2023/07/28 08:39:57;;;;;;;15.25;3.15;;;;;;;23.83;46.56;99761.59;5091165;28;20044;-62
2023/07/28 08:42:25;;;;;;;11.52;3.05;;;;;;;23.85;46.69;99762.28;5091366;28;20471;-63
2023/07/28 08:44:54;;;;;;;9.35;2.55;;;;;;;23.86;46.45;99755.81;5090810;28;20044;-63
2023/07/28 08:47:22;;;;;;;9.50;2.40;;;;;;;23.86;46.42;99750.34;5091239;28;20044;-63
2023/07/28 08:49:50;;;;;;;8.10;2.70;;;;;;;23.86;46.43;99747.63;5091053;28;20379;-63
2023/07/28 08:52:18;;;;;;;8.82;2.55;;;;;;;23.90;46.55;99751.66;5090994;28;20064;-62
2023/07/28 08:54:48;;;;;;;6.22;2.40;;;;;;;23.89;46.45;99736.34;5091056;28;20063;-63
2023/07/28 08:57:16;;;;;;;8.38;2.70;;;;;;;23.91;46.47;99736.16;5090617;28;20516;-63
2023/07/28 08:59:47;;;;;;;6.65;2.50;;;;;;;23.93;46.56;99739.53;5090715;28;20044;-62
2023/07/28 09:02:17;;;;;;;8.80;2.55;;;;;;;23.93;46.69;99731.34;5091017;28;20063;-63
2023/07/28 09:04:46;;;;;;;4.20;1.90;;;;;;;23.94;46.58;99725.75;5090629;28;20040;-63
2023/07/28 09:07:15;;;;;;;6.57;2.33;;;;;;;23.93;46.39;99721.34;5091144;28;20072;-63
2023/07/28 09:09:43;;;;;;;6.13;2.40;;;;;;;23.97;46.47;99722.63;5090894;28;20044;-61
2023/07/28 09:12:13;;;;;;;4.60;2.10;;;;;;;23.98;46.37;99724.31;5090899;28;20063;-61
2023/07/28 09:14:41;;;;;;;7.82;2.38;;;;;;;24.02;46.41;99726.63;5090609;28;20519;-61
2023/07/28 09:17:10;;;;;;;5.40;2.22;;;;;;;24.04;46.26;99721.88;5090814;28;20090;-61
2023/07/28 09:19:52;;;;;;;4.63;2.03;;;;;;;24.06;46.38;99717.06;5090749;28;20131;-63
2023/07/28 09:22:21;;;;;;;6.25;2.30;;;;;;;24.07;46.00;99722.31;5090905;28;20052;-61
2023/07/28 09:24:51;;;;;;;7.28;2.33;;;;;;;24.08;46.21;99717.72;5090755;28;20459;-62
2023/07/28 09:27:25;;;;;;;10.10;2.33;;;;;;;24.11;46.19;99728.22;5090816;28;20060;-62
2023/07/28 09:29:54;;;;;;;6.75;2.17;;;;;;;24.13;46.21;99723.44;5090450;28;20051;-62
2023/07/28 09:32:32;;;;;;;6.65;2.13;;;;;;;24.14;46.23;99714.22;5090698;28;20097;-61
2023/07/28 09:35:10;;;;;;;7.68;2.00;;;;;;;24.18;46.23;99734.59;5090615;28;20044;-61
2023/07/28 09:37:40;;;;;;;4.57;1.90;;;;;;;24.21;46.15;99717.84;5090738;28;20058;-62
2023/07/28 09:40:12;;;;;;;5.28;2.30;;;;;;;24.23;46.28;99715.81;5090641;28;20051;-62
2023/07/28 09:42:42;;;;;;;4.10;2.03;;;;;;;24.26;46.91;99726.31;5090305;28;20044;-64
2023/07/28 09:45:12;;;;;;;6.95;2.10;;;;;;;24.27;46.92;99720.66;5090532;28;20078;-63
2023/07/28 09:47:58;;;;;;;5.00;2.17;;;;;;;24.31;47.23;99728.44;5090527;28;20560;-64
2023/07/28 09:50:29;;;;;;;6.53;2.20;;;;;;;24.32;47.22;99722.84;5090317;28;20052;-63
2023/07/28 09:53:02;;;;;;;5.30;2.00;;;;;;;24.35;47.25;99718.88;5090918;28;20379;-65
2023/07/28 09:55:30;;;;;;;5.35;2.20;;;;;;;24.38;47.23;99713.88;5090166;28;20409;-65
2023/07/28 09:58:05;;;;;;;5.90;2.10;;;;;;;24.39;47.13;99706.53;5090491;28;20493;-65
2023/07/28 10:00:34;;;;;;;4.97;1.95;;;;;;;24.42;46.98;99709.75;5090392;28;20614;-66
2023/07/28 10:03:03;;;;;;;6.40;1.98;;;;;;;24.43;46.97;99705.97;5090633;28;20052;-64
2023/07/28 10:05:34;;;;;;;7.68;2.00;;;;;;;24.45;46.87;99703.88;5090151;28;20052;-63
2023/07/28 10:08:04;;;;;;;5.03;2.00;;;;;;;24.47;46.92;99696.34;5090561;28;20048;-63
2023/07/28 10:10:33;;;;;;;7.38;2.00;;;;;;;24.50;46.80;99706.84;5092278;28;20048;-62
2023/07/28 10:13:04;;;;;;;4.93;1.80;;;;;;;24.52;46.85;99702.06;5094117;28;20135;-63
2023/07/28 10:15:33;;;;;;;7.22;2.13;;;;;;;24.55;46.75;99698.09;5093217;28;20113;-63
2023/07/28 10:18:01;;;;;;;3.90;1.70;;;;;;;24.58;46.89;99694.97;5093809;28;20051;-64
2023/07/28 10:20:32;;;;;;;3.03;1.67;;;;;;;24.65;46.87;99697.78;5093911;28;20401;-62
2023/07/28 10:23:05;;;;;;;2.97;1.73;;;;;;;24.74;46.69;99688.41;5093875;28;20062;-62
2023/07/28 10:25:36;;;;;;;5.30;2.08;;;;;;;24.84;46.80;99689.75;5094024;28;20048;-63
2023/07/28 10:28:06;;;;;;;3.22;1.70;;;;;;;24.95;46.61;99699.28;5093801;28;20044;-65
2023/07/28 10:30:39;;;;;;;3.45;1.60;;;;;;;25.06;46.10;99695.19;5093762;28;20052;-65
2023/07/28 10:33:26;;;;;;;3.97;1.77;;;;;;;25.16;46.03;99694.81;5093620;28;20041;-68
2023/07/28 10:35:54;;;;;;;3.97;1.80;;;;;;;25.25;46.07;99696.34;5093436;28;20150;-66
2023/07/28 10:38:31;;;;;;;5.53;1.98;;;;;;;25.33;45.96;99690.75;5093714;28;20075;-66
2023/07/28 10:41:14;;;;;;;4.63;1.70;;;;;;;25.40;45.75;99697.09;5093732;28;20051;-68
2023/07/28 10:43:45;;;;;;;3.95;1.70;;;;;;;25.43;45.78;99688.47;5093197;28;20066;-69
2023/07/28 10:46:17;;;;;;;2.67;1.42;;;;;;;25.47;45.47;99691.63;5093408;28;20052;-67
2023/07/28 10:48:47;;;;;;;3.70;1.65;;;;;;;25.49;45.53;99684.97;5093373;28;20055;-69
2023/07/28 10:51:22;;;;;;;2.83;1.52;;;;;;;25.54;45.50;99682.44;5093414;28;20079;-69
2023/07/28 10:53:51;;;;;;;4.03;1.80;;;;;;;25.57;45.57;99687.50;5093422;28;20052;-66
2023/07/28 10:56:20;;;;;;;3.72;1.60;;;;;;;25.60;45.87;99687.09;5093059;28;20040;-67
2023/07/28 10:58:57;;;;;;;3.22;1.65;;;;;;;25.65;45.57;99681.84;5093389;28;20075;-68
2023/07/28 11:01:33;;;;;;;3.65;1.50;;;;;;;25.69;45.21;99690.50;5093587;28;20400;-68
2023/07/28 11:04:08;;;;;;;4.13;1.63;;;;;;;25.74;45.62;99676.25;5093209;28;20408;-67
2023/07/28 11:06:37;;;;;;;4.00;1.50;;;;;;;25.76;45.21;99685.09;5092872;28;20105;-69
2023/07/28 11:09:07;;;;;;;2.90;1.55;;;;;;;25.79;45.47;99690.16;5093106;28;20143;-68
2023/07/28 11:11:36;;;;;;;2.65;1.40;;;;;;;25.85;45.26;99683.84;5093355;28;20060;-68
2023/07/28 11:14:08;;;;;;;3.67;1.70;;;;;;;25.87;44.92;99676.31;5093167;28;20110;-68
2023/07/28 11:16:38;;;;;;;2.92;1.48;;;;;;;25.89;45.43;99683.25;5092503;28;20554;-67
2023/07/28 11:19:10;;;;;;;5.18;1.80;;;;;;;25.92;44.99;99685.56;5074524;28;20048;-68
2023/07/28 11:21:39;;;;;;;4.00;1.67;;;;;;;25.95;45.18;99678.84;5074455;28;20059;-68
2023/07/28 11:24:09;;;;;;;3.50;1.50;;;;;;;25.96;45.14;99677.78;5092486;28;20098;-68
2023/07/28 11:26:38;;;;;;;2.33;1.60;;;;;;;26.00;45.48;99675.50;5092448;28;20048;-68
2023/07/28 11:29:08;;;;;;;3.63;1.58;;;;;;;26.03;45.09;99675.94;5092466;28;20527;-68
2023/07/28 11:31:36;;;;;;;4.25;1.65;;;;;;;26.07;45.06;99671.75;5092482;28;20101;-68
2023/07/28 11:34:13;;;;;;;2.30;1.40;;;;;;;26.08;44.96;99673.44;5092480;28;20443;-67
2023/07/28 11:36:42;;;;;;;2.67;1.50;;;;;;;26.11;44.67;99669.44;5091994;28;20044;-67
2023/07/28 11:39:11;;;;;;;2.22;1.40;;;;;;;26.12;44.93;99661.03;5092580;28;20048;-68
2023/07/28 11:41:40;;;;;;;2.17;1.50;;;;;;;26.16;44.76;99675.16;5092233;28;20488;-67
2023/07/28 11:44:10;;;;;;;3.13;1.40;;;;;;;26.20;44.53;99665.47;5091601;28;20055;-69